sensor_id;sensor_type;location;lat;lon;timestamp;P1;durP1;ratioP1;P2;durP2;ratioP2
51495;SDS011;37572;52.094;4.870;2023-07-31T00:00:25;24.33;;;6.95;;
51495;SDS011;37572;52.094;4.870;2023-07-31T00:02:51;31.17;;;8.17;;
51495;SDS011;37572;52.094;4.870;2023-07-31T00:05:17;31.63;;;7.53;;
51495;SDS011;37572;52.094;4.870;2023-07-31T00:07:42;27.90;;;8.30;;
51495;SDS011;37572;52.094;4.870;2023-07-31T00:10:08;31.87;;;8.47;;
51495;SDS011;37572;52.094;4.870;2023-07-31T00:12:34;25.77;;;7.72;;
51495;SDS011;37572;52.094;4.870;2023-07-31T00:14:59;27.27;;;7.73;;
51495;SDS011;37572;52.094;4.870;2023-07-31T00:17:24;29.08;;;7.40;;
51495;SDS011;37572;52.094;4.870;2023-07-31T00:19:50;29.00;;;7.70;;
51495;SDS011;37572;52.094;4.870;2023-07-31T00:22:15;32.00;;;7.60;;
51495;SDS011;37572;52.094;4.870;2023-07-31T00:24:41;20.27;;;7.65;;
51495;SDS011;37572;52.094;4.870;2023-07-31T00:27:06;25.90;;;7.25;;
51495;SDS011;37572;52.094;4.870;2023-07-31T00:29:31;18.63;;;6.03;;
51495;SDS011;37572;52.094;4.870;2023-07-31T00:31:57;27.47;;;7.00;;
51495;SDS011;37572;52.094;4.870;2023-07-31T00:34:22;24.67;;;6.23;;
51495;SDS011;37572;52.094;4.870;2023-07-31T00:36:47;22.42;;;6.55;;
51495;SDS011;37572;52.094;4.870;2023-07-31T00:39:13;20.63;;;6.27;;
51495;SDS011;37572;52.094;4.870;2023-07-31T00:41:38;19.48;;;5.60;;
51495;SDS011;37572;52.094;4.870;2023-07-31T00:44:04;14.77;;;5.95;;
51495;SDS011;37572;52.094;4.870;2023-07-31T00:46:29;21.90;;;6.23;;
51495;SDS011;37572;52.094;4.870;2023-07-31T01:28:32;29.92;;;8.57;;
51495;SDS011;37572;52.094;4.870;2023-07-31T01:31:20;32.60;;;7.00;;
51495;SDS011;37572;52.094;4.870;2023-07-31T01:33:49;21.98;;;6.20;;
51495;SDS011;37572;52.094;4.870;2023-07-31T01:36:17;25.60;;;6.18;;
51495;SDS011;37572;52.094;4.870;2023-07-31T01:38:42;25.13;;;7.20;;
51495;SDS011;37572;52.094;4.870;2023-07-31T01:41:07;17.13;;;5.83;;
51495;SDS011;37572;52.094;4.870;2023-07-31T01:43:33;24.10;;;6.30;;
51495;SDS011;37572;52.094;4.870;2023-07-31T01:45:58;20.70;;;6.00;;
51495;SDS011;37572;52.094;4.870;2023-07-31T01:48:23;17.03;;;5.77;;
51495;SDS011;37572;52.094;4.870;2023-07-31T01:50:48;17.67;;;6.50;;
51495;SDS011;37572;52.094;4.870;2023-07-31T01:53:14;20.25;;;6.28;;
51495;SDS011;37572;52.094;4.870;2023-07-31T01:55:40;20.83;;;5.47;;
51495;SDS011;37572;52.094;4.870;2023-07-31T01:58:05;19.50;;;6.07;;
51495;SDS011;37572;52.094;4.870;2023-07-31T02:00:30;30.67;;;6.30;;
51495;SDS011;37572;52.094;4.870;2023-07-31T02:02:55;27.40;;;6.93;;
51495;SDS011;37572;52.094;4.870;2023-07-31T02:05:21;21.30;;;6.60;;
51495;SDS011;37572;52.094;4.870;2023-07-31T02:07:46;25.58;;;7.63;;
51495;SDS011;37572;52.094;4.870;2023-07-31T02:10:11;25.70;;;7.43;;
51495;SDS011;37572;52.094;4.870;2023-07-31T02:12:37;28.10;;;7.03;;
51495;SDS011;37572;52.094;4.870;2023-07-31T02:15:02;20.38;;;7.00;;
51495;SDS011;37572;52.094;4.870;2023-07-31T02:17:27;24.25;;;6.50;;
51495;SDS011;37572;52.094;4.870;2023-07-31T02:19:54;30.88;;;6.53;;
51495;SDS011;37572;52.094;4.870;2023-07-31T02:22:19;28.70;;;6.85;;
51495;SDS011;37572;52.094;4.870;2023-07-31T02:24:45;21.77;;;6.50;;
51495;SDS011;37572;52.094;4.870;2023-07-31T02:27:10;33.77;;;7.33;;
51495;SDS011;37572;52.094;4.870;2023-07-31T02:29:35;19.30;;;5.60;;
51495;SDS011;37572;52.094;4.870;2023-07-31T02:32:01;19.83;;;6.73;;
51495;SDS011;37572;52.094;4.870;2023-07-31T02:34:26;27.83;;;7.17;;
51495;SDS011;37572;52.094;4.870;2023-07-31T02:36:51;23.33;;;7.53;;
51495;SDS011;37572;52.094;4.870;2023-07-31T02:39:16;31.30;;;8.43;;
51495;SDS011;37572;52.094;4.870;2023-07-31T02:41:42;21.60;;;7.63;;
51495;SDS011;37572;52.094;4.870;2023-07-31T02:44:07;27.30;;;6.73;;
51495;SDS011;37572;52.094;4.870;2023-07-31T02:46:32;29.40;;;7.57;;
51495;SDS011;37572;52.094;4.870;2023-07-31T02:48:57;25.20;;;6.57;;
51495;SDS011;37572;52.094;4.870;2023-07-31T02:51:23;23.67;;;7.07;;
51495;SDS011;37572;52.094;4.870;2023-07-31T02:53:48;20.95;;;6.78;;
51495;SDS011;37572;52.094;4.870;2023-07-31T02:56:14;21.90;;;7.75;;
51495;SDS011;37572;52.094;4.870;2023-07-31T02:58:39;21.92;;;7.30;;
51495;SDS011;37572;52.094;4.870;2023-07-31T03:01:05;24.60;;;6.50;;
51495;SDS011;37572;52.094;4.870;2023-07-31T03:03:30;20.63;;;6.80;;
51495;SDS011;37572;52.094;4.870;2023-07-31T03:05:55;18.15;;;5.97;;
51495;SDS011;37572;52.094;4.870;2023-07-31T03:08:21;23.13;;;6.67;;
51495;SDS011;37572;52.094;4.870;2023-07-31T03:10:46;19.87;;;5.63;;
51495;SDS011;37572;52.094;4.870;2023-07-31T03:13:11;20.97;;;6.27;;
51495;SDS011;37572;52.094;4.870;2023-07-31T03:15:37;20.27;;;6.15;;
51495;SDS011;37572;52.094;4.870;2023-07-31T03:18:02;17.30;;;6.00;;
51495;SDS011;37572;52.094;4.870;2023-07-31T03:20:27;24.42;;;6.18;;
51495;SDS011;37572;52.094;4.870;2023-07-31T03:22:53;20.13;;;5.83;;
51495;SDS011;37572;52.094;4.870;2023-07-31T03:25:18;21.33;;;6.03;;
51495;SDS011;37572;52.094;4.870;2023-07-31T03:27:43;24.77;;;6.47;;
51495;SDS011;37572;52.094;4.870;2023-07-31T03:30:08;20.73;;;6.23;;
51495;SDS011;37572;52.094;4.870;2023-07-31T03:32:34;18.10;;;6.45;;
51495;SDS011;37572;52.094;4.870;2023-07-31T03:34:59;17.73;;;5.70;;
51495;SDS011;37572;52.094;4.870;2023-07-31T03:37:25;21.50;;;6.37;;
51495;SDS011;37572;52.094;4.870;2023-07-31T03:39:51;18.45;;;6.95;;
51495;SDS011;37572;52.094;4.870;2023-07-31T03:42:16;21.77;;;5.67;;
51495;SDS011;37572;52.094;4.870;2023-07-31T03:44:41;19.40;;;5.93;;
51495;SDS011;37572;52.094;4.870;2023-07-31T03:47:07;24.53;;;5.53;;
51495;SDS011;37572;52.094;4.870;2023-07-31T03:49:32;22.47;;;6.10;;
51495;SDS011;37572;52.094;4.870;2023-07-31T03:51:57;14.80;;;5.40;;
51495;SDS011;37572;52.094;4.870;2023-07-31T03:54:22;23.63;;;6.47;;
51495;SDS011;37572;52.094;4.870;2023-07-31T03:56:49;22.43;;;6.30;;
51495;SDS011;37572;52.094;4.870;2023-07-31T03:59:14;20.30;;;6.05;;
51495;SDS011;37572;52.094;4.870;2023-07-31T04:01:40;15.15;;;5.32;;
51495;SDS011;37572;52.094;4.870;2023-07-31T04:04:05;19.17;;;6.03;;
51495;SDS011;37572;52.094;4.870;2023-07-31T04:06:30;18.00;;;6.35;;
51495;SDS011;37572;52.094;4.870;2023-07-31T04:08:56;18.15;;;6.05;;
51495;SDS011;37572;52.094;4.870;2023-07-31T04:11:21;19.15;;;6.07;;
51495;SDS011;37572;52.094;4.870;2023-07-31T04:13:46;19.60;;;6.78;;
51495;SDS011;37572;52.094;4.870;2023-07-31T04:16:12;20.00;;;5.93;;
51495;SDS011;37572;52.094;4.870;2023-07-31T04:18:37;17.02;;;5.70;;
51495;SDS011;37572;52.094;4.870;2023-07-31T04:21:03;16.95;;;6.55;;
51495;SDS011;37572;52.094;4.870;2023-07-31T04:23:28;23.23;;;6.55;;
51495;SDS011;37572;52.094;4.870;2023-07-31T04:25:54;16.98;;;6.28;;
51495;SDS011;37572;52.094;4.870;2023-07-31T04:28:19;19.23;;;7.27;;
51495;SDS011;37572;52.094;4.870;2023-07-31T04:30:44;20.13;;;6.97;;
51495;SDS011;37572;52.094;4.870;2023-07-31T04:33:10;17.90;;;6.93;;
51495;SDS011;37572;52.094;4.870;2023-07-31T04:35:35;19.25;;;6.28;;
51495;SDS011;37572;52.094;4.870;2023-07-31T04:38:01;20.90;;;6.70;;
51495;SDS011;37572;52.094;4.870;2023-07-31T04:40:26;16.67;;;6.40;;
51495;SDS011;37572;52.094;4.870;2023-07-31T04:42:51;16.25;;;6.35;;
51495;SDS011;37572;52.094;4.870;2023-07-31T04:45:17;21.53;;;5.93;;
51495;SDS011;37572;52.094;4.870;2023-07-31T04:47:42;16.83;;;6.65;;
51495;SDS011;37572;52.094;4.870;2023-07-31T04:50:07;15.85;;;6.63;;
51495;SDS011;37572;52.094;4.870;2023-07-31T04:52:33;13.07;;;5.60;;
51495;SDS011;37572;52.094;4.870;2023-07-31T04:54:58;17.55;;;6.20;;
51495;SDS011;37572;52.094;4.870;2023-07-31T04:57:24;16.37;;;6.80;;
51495;SDS011;37572;52.094;4.870;2023-07-31T04:59:49;16.55;;;6.55;;
51495;SDS011;37572;52.094;4.870;2023-07-31T05:02:14;13.50;;;6.70;;
51495;SDS011;37572;52.094;4.870;2023-07-31T05:04:40;13.68;;;6.63;;
51495;SDS011;37572;52.094;4.870;2023-07-31T05:07:05;11.00;;;6.00;;
51495;SDS011;37572;52.094;4.870;2023-07-31T05:09:30;11.67;;;5.37;;
51495;SDS011;37572;52.094;4.870;2023-07-31T05:11:56;12.87;;;5.23;;
51495;SDS011;37572;52.094;4.870;2023-07-31T05:14:21;13.23;;;5.33;;
51495;SDS011;37572;52.094;4.870;2023-07-31T05:16:46;11.07;;;5.72;;
51495;SDS011;37572;52.094;4.870;2023-07-31T05:19:12;13.20;;;4.75;;
51495;SDS011;37572;52.094;4.870;2023-07-31T05:21:37;11.93;;;4.93;;
51495;SDS011;37572;52.094;4.870;2023-07-31T05:24:02;14.98;;;5.20;;
51495;SDS011;37572;52.094;4.870;2023-07-31T05:26:28;16.40;;;5.68;;
51495;SDS011;37572;52.094;4.870;2023-07-31T05:28:53;13.57;;;5.30;;
51495;SDS011;37572;52.094;4.870;2023-07-31T05:31:19;14.90;;;4.75;;
51495;SDS011;37572;52.094;4.870;2023-07-31T05:33:45;14.70;;;5.28;;
51495;SDS011;37572;52.094;4.870;2023-07-31T05:36:11;15.98;;;5.28;;
51495;SDS011;37572;52.094;4.870;2023-07-31T05:38:36;12.38;;;4.70;;
51495;SDS011;37572;52.094;4.870;2023-07-31T05:41:01;18.63;;;4.73;;
51495;SDS011;37572;52.094;4.870;2023-07-31T05:43:27;13.32;;;4.88;;
51495;SDS011;37572;52.094;4.870;2023-07-31T05:45:52;11.87;;;4.27;;
51495;SDS011;37572;52.094;4.870;2023-07-31T05:48:17;12.17;;;4.50;;
51495;SDS011;37572;52.094;4.870;2023-07-31T05:50:43;14.77;;;4.83;;
51495;SDS011;37572;52.094;4.870;2023-07-31T05:53:09;12.23;;;4.43;;
51495;SDS011;37572;52.094;4.870;2023-07-31T05:55:35;9.07;;;4.05;;
51495;SDS011;37572;52.094;4.870;2023-07-31T05:58:00;9.52;;;3.88;;
51495;SDS011;37572;52.094;4.870;2023-07-31T06:00:26;10.88;;;4.75;;
51495;SDS011;37572;52.094;4.870;2023-07-31T06:02:52;10.77;;;4.28;;
51495;SDS011;37572;52.094;4.870;2023-07-31T06:05:18;12.63;;;3.78;;
51495;SDS011;37572;52.094;4.870;2023-07-31T06:07:43;13.75;;;5.30;;
51495;SDS011;37572;52.094;4.870;2023-07-31T06:10:08;13.40;;;4.03;;
51495;SDS011;37572;52.094;4.870;2023-07-31T06:12:34;8.63;;;4.20;;
51495;SDS011;37572;52.094;4.870;2023-07-31T06:15:00;10.75;;;4.22;;
51495;SDS011;37572;52.094;4.870;2023-07-31T06:17:26;11.18;;;4.20;;
51495;SDS011;37572;52.094;4.870;2023-07-31T06:19:52;9.80;;;4.07;;
51495;SDS011;37572;52.094;4.870;2023-07-31T06:22:18;10.48;;;3.95;;
51495;SDS011;37572;52.094;4.870;2023-07-31T06:24:43;7.28;;;3.13;;
51495;SDS011;37572;52.094;4.870;2023-07-31T06:27:09;9.65;;;4.07;;
51495;SDS011;37572;52.094;4.870;2023-07-31T06:29:35;11.00;;;4.82;;
51495;SDS011;37572;52.094;4.870;2023-07-31T06:32:00;7.23;;;4.00;;
51495;SDS011;37572;52.094;4.870;2023-07-31T06:34:26;7.32;;;4.10;;
51495;SDS011;37572;52.094;4.870;2023-07-31T06:36:51;9.53;;;4.07;;
51495;SDS011;37572;52.094;4.870;2023-07-31T06:39:16;10.10;;;3.87;;
51495;SDS011;37572;52.094;4.870;2023-07-31T06:41:42;8.65;;;3.85;;
51495;SDS011;37572;52.094;4.870;2023-07-31T06:44:09;6.97;;;3.63;;
51495;SDS011;37572;52.094;4.870;2023-07-31T06:46:34;9.52;;;3.92;;
51495;SDS011;37572;52.094;4.870;2023-07-31T06:49:00;7.13;;;3.47;;
51495;SDS011;37572;52.094;4.870;2023-07-31T06:51:25;9.13;;;3.77;;
51495;SDS011;37572;52.094;4.870;2023-07-31T06:53:50;9.90;;;3.67;;
51495;SDS011;37572;52.094;4.870;2023-07-31T06:56:15;7.13;;;3.97;;
51495;SDS011;37572;52.094;4.870;2023-07-31T06:58:41;10.17;;;3.93;;
51495;SDS011;37572;52.094;4.870;2023-07-31T07:01:06;9.53;;;3.37;;
51495;SDS011;37572;52.094;4.870;2023-07-31T07:03:32;9.37;;;3.83;;
51495;SDS011;37572;52.094;4.870;2023-07-31T07:05:57;6.68;;;3.67;;
51495;SDS011;37572;52.094;4.870;2023-07-31T07:08:23;7.32;;;2.90;;
51495;SDS011;37572;52.094;4.870;2023-07-31T07:10:49;6.43;;;2.78;;
51495;SDS011;37572;52.094;4.870;2023-07-31T07:13:14;5.70;;;2.63;;
51495;SDS011;37572;52.094;4.870;2023-07-31T07:15:40;6.10;;;2.38;;
51495;SDS011;37572;52.094;4.870;2023-07-31T07:18:05;5.27;;;2.60;;
51495;SDS011;37572;52.094;4.870;2023-07-31T07:20:30;6.90;;;3.33;;
51495;SDS011;37572;52.094;4.870;2023-07-31T07:22:55;5.83;;;3.00;;
51495;SDS011;37572;52.094;4.870;2023-07-31T07:25:21;4.90;;;2.38;;
51495;SDS011;37572;52.094;4.870;2023-07-31T07:27:46;5.00;;;2.63;;
51495;SDS011;37572;52.094;4.870;2023-07-31T07:30:11;5.27;;;2.90;;
51495;SDS011;37572;52.094;4.870;2023-07-31T07:32:37;5.70;;;2.75;;
51495;SDS011;37572;52.094;4.870;2023-07-31T07:35:02;5.88;;;2.40;;
51495;SDS011;37572;52.094;4.870;2023-07-31T07:37:28;6.93;;;2.30;;
51495;SDS011;37572;52.094;4.870;2023-07-31T07:39:53;6.57;;;2.63;;
51495;SDS011;37572;52.094;4.870;2023-07-31T07:42:18;5.70;;;3.23;;
51495;SDS011;37572;52.094;4.870;2023-07-31T07:44:44;3.80;;;2.37;;
51495;SDS011;37572;52.094;4.870;2023-07-31T07:47:09;4.47;;;2.33;;
51495;SDS011;37572;52.094;4.870;2023-07-31T07:49:34;3.87;;;2.17;;
51495;SDS011;37572;52.094;4.870;2023-07-31T07:52:00;3.30;;;1.73;;
51495;SDS011;37572;52.094;4.870;2023-07-31T07:54:26;3.03;;;1.58;;
51495;SDS011;37572;52.094;4.870;2023-07-31T07:56:52;5.13;;;1.95;;
51495;SDS011;37572;52.094;4.870;2023-07-31T07:59:17;4.95;;;2.03;;
51495;SDS011;37572;52.094;4.870;2023-07-31T08:01:42;3.00;;;1.60;;
51495;SDS011;37572;52.094;4.870;2023-07-31T08:04:08;3.60;;;1.97;;
51495;SDS011;37572;52.094;4.870;2023-07-31T08:06:33;3.80;;;2.10;;
51495;SDS011;37572;52.094;4.870;2023-07-31T08:08:59;3.30;;;1.95;;
51495;SDS011;37572;52.094;4.870;2023-07-31T08:11:24;3.40;;;2.28;;
51495;SDS011;37572;52.094;4.870;2023-07-31T08:13:50;4.18;;;2.28;;
51495;SDS011;37572;52.094;4.870;2023-07-31T08:16:15;3.30;;;1.60;;
51495;SDS011;37572;52.094;4.870;2023-07-31T08:18:41;3.08;;;1.98;;
51495;SDS011;37572;52.094;4.870;2023-07-31T08:21:07;2.92;;;1.52;;
51495;SDS011;37572;52.094;4.870;2023-07-31T08:23:33;2.80;;;1.63;;
51495;SDS011;37572;52.094;4.870;2023-07-31T08:25:58;2.97;;;1.73;;
51495;SDS011;37572;52.094;4.870;2023-07-31T08:28:23;2.67;;;1.67;;
51495;SDS011;37572;52.094;4.870;2023-07-31T08:30:49;3.00;;;1.38;;
51495;SDS011;37572;52.094;4.870;2023-07-31T08:33:15;2.88;;;1.23;;
51495;SDS011;37572;52.094;4.870;2023-07-31T08:35:41;2.70;;;1.40;;
51495;SDS011;37572;52.094;4.870;2023-07-31T08:38:06;2.95;;;1.23;;
51495;SDS011;37572;52.094;4.870;2023-07-31T08:40:31;2.88;;;1.23;;
51495;SDS011;37572;52.094;4.870;2023-07-31T08:42:57;3.35;;;1.50;;
51495;SDS011;37572;52.094;4.870;2023-07-31T08:45:27;2.15;;;1.02;;
51495;SDS011;37572;52.094;4.870;2023-07-31T08:47:52;3.15;;;1.23;;
51495;SDS011;37572;52.094;4.870;2023-07-31T08:50:18;2.00;;;1.30;;
51495;SDS011;37572;52.094;4.870;2023-07-31T08:52:46;3.25;;;1.30;;
51495;SDS011;37572;52.094;4.870;2023-07-31T08:55:12;2.30;;;1.42;;
51495;SDS011;37572;52.094;4.870;2023-07-31T08:57:38;2.08;;;1.23;;
51495;SDS011;37572;52.094;4.870;2023-07-31T09:00:04;2.70;;;1.33;;
51495;SDS011;37572;52.094;4.870;2023-07-31T09:02:34;2.65;;;1.02;;
51495;SDS011;37572;52.094;4.870;2023-07-31T09:05:05;4.05;;;1.23;;
51495;SDS011;37572;52.094;4.870;2023-07-31T09:07:32;1.88;;;0.93;;
51495;SDS011;37572;52.094;4.870;2023-07-31T09:09:59;2.08;;;0.98;;
51495;SDS011;37572;52.094;4.870;2023-07-31T09:12:25;2.07;;;0.90;;
51495;SDS011;37572;52.094;4.870;2023-07-31T09:14:51;2.53;;;1.02;;
51495;SDS011;37572;52.094;4.870;2023-07-31T09:17:16;2.30;;;1.00;;
51495;SDS011;37572;52.094;4.870;2023-07-31T09:19:57;3.47;;;1.23;;
51495;SDS011;37572;52.094;4.870;2023-07-31T09:22:32;2.20;;;0.90;;
51495;SDS011;37572;52.094;4.870;2023-07-31T09:25:32;2.35;;;1.50;;
51495;SDS011;37572;52.094;4.870;2023-07-31T09:27:52;2.67;;;1.48;;
51495;SDS011;37572;52.094;4.870;2023-07-31T09:30:19;3.10;;;1.63;;
51495;SDS011;37572;52.094;4.870;2023-07-31T09:32:46;3.70;;;1.52;;
51495;SDS011;37572;52.094;4.870;2023-07-31T09:35:13;4.18;;;1.75;;
51495;SDS011;37572;52.094;4.870;2023-07-31T09:37:43;3.95;;;1.52;;
51495;SDS011;37572;52.094;4.870;2023-07-31T09:40:08;3.25;;;1.63;;
51495;SDS011;37572;52.094;4.870;2023-07-31T09:42:34;5.22;;;2.25;;
51495;SDS011;37572;52.094;4.870;2023-07-31T09:45:09;3.53;;;2.03;;
51495;SDS011;37572;52.094;4.870;2023-07-31T09:47:34;4.50;;;2.50;;
51495;SDS011;37572;52.094;4.870;2023-07-31T09:50:00;4.28;;;2.22;;
51495;SDS011;37572;52.094;4.870;2023-07-31T09:52:28;4.77;;;2.70;;
51495;SDS011;37572;52.094;4.870;2023-07-31T09:54:53;4.28;;;2.85;;
51495;SDS011;37572;52.094;4.870;2023-07-31T09:57:19;4.22;;;2.92;;
51495;SDS011;37572;52.094;4.870;2023-07-31T09:59:47;4.63;;;2.72;;
51495;SDS011;37572;52.094;4.870;2023-07-31T10:02:15;4.60;;;3.08;;
51495;SDS011;37572;52.094;4.870;2023-07-31T10:04:45;5.45;;;3.22;;
51495;SDS011;37572;52.094;4.870;2023-07-31T10:07:14;4.65;;;3.08;;
51495;SDS011;37572;52.094;4.870;2023-07-31T10:09:43;5.88;;;2.78;;
51495;SDS011;37572;52.094;4.870;2023-07-31T10:12:09;5.75;;;2.92;;
51495;SDS011;37572;52.094;4.870;2023-07-31T10:14:39;5.00;;;2.97;;
51495;SDS011;37572;52.094;4.870;2023-07-31T10:17:06;5.95;;;2.67;;
51495;SDS011;37572;52.094;4.870;2023-07-31T10:19:33;4.15;;;2.35;;
51495;SDS011;37572;52.094;4.870;2023-07-31T10:22:00;4.97;;;2.60;;
51495;SDS011;37572;52.094;4.870;2023-07-31T10:24:27;4.90;;;2.60;;
51495;SDS011;37572;52.094;4.870;2023-07-31T10:26:54;4.68;;;2.67;;
51495;SDS011;37572;52.094;4.870;2023-07-31T10:29:23;6.72;;;3.33;;
51495;SDS011;37572;52.094;4.870;2023-07-31T10:31:50;4.85;;;2.88;;
51495;SDS011;37572;52.094;4.870;2023-07-31T10:34:16;4.82;;;4.18;;
51495;SDS011;37572;52.094;4.870;2023-07-31T10:36:41;6.22;;;3.30;;
51495;SDS011;37572;52.094;4.870;2023-07-31T10:39:20;4.60;;;2.85;;
51495;SDS011;37572;52.094;4.870;2023-07-31T10:41:59;6.80;;;3.28;;
51495;SDS011;37572;52.094;4.870;2023-07-31T10:44:24;5.37;;;3.10;;
51495;SDS011;37572;52.094;4.870;2023-07-31T10:46:49;5.13;;;2.80;;
51495;SDS011;37572;52.094;4.870;2023-07-31T10:49:20;6.78;;;2.70;;
51495;SDS011;37572;52.094;4.870;2023-07-31T10:51:46;4.90;;;3.03;;
51495;SDS011;37572;52.094;4.870;2023-07-31T10:54:16;5.95;;;3.17;;
51495;SDS011;37572;52.094;4.870;2023-07-31T10:56:46;6.22;;;3.15;;
51495;SDS011;37572;52.094;4.870;2023-07-31T10:59:12;6.53;;;3.40;;
51495;SDS011;37572;52.094;4.870;2023-07-31T11:04:25;6.55;;;2.78;;
51495;SDS011;37572;52.094;4.870;2023-07-31T11:06:55;6.55;;;3.38;;
51495;SDS011;37572;52.094;4.870;2023-07-31T11:09:27;5.63;;;3.00;;
51495;SDS011;37572;52.094;4.870;2023-07-31T11:11:54;5.80;;;2.83;;
51495;SDS011;37572;52.094;4.870;2023-07-31T11:14:20;7.47;;;2.92;;
51495;SDS011;37572;52.094;4.870;2023-07-31T11:16:46;8.38;;;2.75;;
51495;SDS011;37572;52.094;4.870;2023-07-31T11:19:14;7.78;;;2.63;;
51495;SDS011;37572;52.094;4.870;2023-07-31T11:21:40;8.13;;;3.20;;
51495;SDS011;37572;52.094;4.870;2023-07-31T11:24:05;8.02;;;3.33;;
51495;SDS011;37572;52.094;4.870;2023-07-31T11:26:30;8.05;;;3.10;;
51495;SDS011;37572;52.094;4.870;2023-07-31T11:28:56;8.87;;;3.50;;
51495;SDS011;37572;52.094;4.870;2023-07-31T11:31:21;6.50;;;3.20;;
51495;SDS011;37572;52.094;4.870;2023-07-31T11:33:46;10.77;;;3.22;;
51495;SDS011;37572;52.094;4.870;2023-07-31T11:36:19;8.55;;;3.95;;
51495;SDS011;37572;52.094;4.870;2023-07-31T11:38:45;8.07;;;3.85;;
51495;SDS011;37572;52.094;4.870;2023-07-31T11:41:13;7.50;;;3.50;;
51495;SDS011;37572;52.094;4.870;2023-07-31T11:43:39;7.13;;;3.75;;
51495;SDS011;37572;52.094;4.870;2023-07-31T11:46:04;7.60;;;3.73;;
51495;SDS011;37572;52.094;4.870;2023-07-31T11:48:32;7.70;;;3.33;;
51495;SDS011;37572;52.094;4.870;2023-07-31T11:51:01;6.75;;;3.78;;
51495;SDS011;37572;52.094;4.870;2023-07-31T11:56:17;7.90;;;3.65;;
51495;SDS011;37572;52.094;4.870;2023-07-31T11:58:43;7.28;;;3.75;;
51495;SDS011;37572;52.094;4.870;2023-07-31T12:01:11;8.00;;;4.82;;
51495;SDS011;37572;52.094;4.870;2023-07-31T12:03:39;10.15;;;4.68;;
51495;SDS011;37572;52.094;4.870;2023-07-31T12:06:05;10.70;;;4.47;;
51495;SDS011;37572;52.094;4.870;2023-07-31T12:08:31;7.35;;;4.20;;
51495;SDS011;37572;52.094;4.870;2023-07-31T12:11:01;6.47;;;3.90;;
51495;SDS011;37572;52.094;4.870;2023-07-31T12:13:30;8.30;;;3.65;;
51495;SDS011;37572;52.094;4.870;2023-07-31T12:15:57;7.53;;;3.38;;
51495;SDS011;37572;52.094;4.870;2023-07-31T12:18:25;8.18;;;4.53;;
51495;SDS011;37572;52.094;4.870;2023-07-31T12:20:58;9.18;;;4.05;;
51495;SDS011;37572;52.094;4.870;2023-07-31T12:23:25;7.90;;;4.57;;
51495;SDS011;37572;52.094;4.870;2023-07-31T12:26:04;8.40;;;4.88;;
51495;SDS011;37572;52.094;4.870;2023-07-31T12:28:35;7.38;;;4.15;;
51495;SDS011;37572;52.094;4.870;2023-07-31T12:31:01;7.25;;;4.50;;
51495;SDS011;37572;52.094;4.870;2023-07-31T12:33:31;8.70;;;3.45;;
51495;SDS011;37572;52.094;4.870;2023-07-31T12:35:57;5.20;;;3.40;;
51495;SDS011;37572;52.094;4.870;2023-07-31T12:38:25;8.05;;;3.50;;
51495;SDS011;37572;52.094;4.870;2023-07-31T12:40:50;7.25;;;3.00;;
51495;SDS011;37572;52.094;4.870;2023-07-31T12:43:16;6.65;;;3.45;;
51495;SDS011;37572;52.094;4.870;2023-07-31T12:45:41;7.90;;;3.33;;
51495;SDS011;37572;52.094;4.870;2023-07-31T12:48:06;6.35;;;3.33;;
51495;SDS011;37572;52.094;4.870;2023-07-31T12:50:32;6.97;;;4.17;;
51495;SDS011;37572;52.094;4.870;2023-07-31T12:52:57;9.40;;;3.90;;
51495;SDS011;37572;52.094;4.870;2023-07-31T12:55:23;8.48;;;3.20;;
51495;SDS011;37572;52.094;4.870;2023-07-31T12:57:48;6.03;;;3.63;;
51495;SDS011;37572;52.094;4.870;2023-07-31T13:00:14;7.20;;;2.70;;
51495;SDS011;37572;52.094;4.870;2023-07-31T13:02:40;4.53;;;2.72;;
51495;SDS011;37572;52.094;4.870;2023-07-31T13:05:05;6.50;;;3.05;;
51495;SDS011;37572;52.094;4.870;2023-07-31T13:07:31;5.05;;;3.28;;
51495;SDS011;37572;52.094;4.870;2023-07-31T13:09:56;6.28;;;3.15;;
51495;SDS011;37572;52.094;4.870;2023-07-31T13:12:21;10.33;;;3.90;;
51495;SDS011;37572;52.094;4.870;2023-07-31T13:14:47;5.60;;;3.17;;
51495;SDS011;37572;52.094;4.870;2023-07-31T13:17:12;5.22;;;3.55;;
51495;SDS011;37572;52.094;4.870;2023-07-31T13:19:37;5.13;;;3.17;;
51495;SDS011;37572;52.094;4.870;2023-07-31T13:22:03;5.97;;;3.23;;
51495;SDS011;37572;52.094;4.870;2023-07-31T13:24:29;5.70;;;2.83;;
51495;SDS011;37572;52.094;4.870;2023-07-31T13:26:55;6.03;;;2.65;;
51495;SDS011;37572;52.094;4.870;2023-07-31T13:29:20;4.22;;;2.80;;
51495;SDS011;37572;52.094;4.870;2023-07-31T13:31:46;4.55;;;1.90;;
51495;SDS011;37572;52.094;4.870;2023-07-31T13:34:12;4.55;;;2.50;;
51495;SDS011;37572;52.094;4.870;2023-07-31T13:36:37;4.03;;;2.75;;
51495;SDS011;37572;52.094;4.870;2023-07-31T13:39:02;3.90;;;2.40;;
51495;SDS011;37572;52.094;4.870;2023-07-31T13:41:28;5.57;;;2.80;;
51495;SDS011;37572;52.094;4.870;2023-07-31T13:43:53;3.13;;;1.90;;
51495;SDS011;37572;52.094;4.870;2023-07-31T13:46:18;4.43;;;2.20;;
51495;SDS011;37572;52.094;4.870;2023-07-31T13:48:44;3.70;;;2.10;;
51495;SDS011;37572;52.094;4.870;2023-07-31T13:51:09;4.20;;;2.03;;
51495;SDS011;37572;52.094;4.870;2023-07-31T13:53:34;3.97;;;2.10;;
51495;SDS011;37572;52.094;4.870;2023-07-31T13:56:00;4.77;;;2.73;;
51495;SDS011;37572;52.094;4.870;2023-07-31T13:58:25;3.25;;;1.50;;
51495;SDS011;37572;52.094;4.870;2023-07-31T14:00:51;2.80;;;1.52;;
51495;SDS011;37572;52.094;4.870;2023-07-31T14:03:16;3.60;;;1.70;;
51495;SDS011;37572;52.094;4.870;2023-07-31T14:05:41;2.60;;;1.38;;
51495;SDS011;37572;52.094;4.870;2023-07-31T14:08:07;3.17;;;1.63;;
51495;SDS011;37572;52.094;4.870;2023-07-31T14:10:32;3.03;;;1.70;;
51495;SDS011;37572;52.094;4.870;2023-07-31T14:12:57;2.90;;;1.77;;
51495;SDS011;37572;52.094;4.870;2023-07-31T14:15:23;2.43;;;1.73;;
51495;SDS011;37572;52.094;4.870;2023-07-31T14:17:48;2.93;;;1.93;;
51495;SDS011;37572;52.094;4.870;2023-07-31T14:20:13;2.47;;;1.83;;
51495;SDS011;37572;52.094;4.870;2023-07-31T14:22:39;3.03;;;1.98;;
51495;SDS011;37572;52.094;4.870;2023-07-31T14:25:04;3.30;;;1.63;;
51495;SDS011;37572;52.094;4.870;2023-07-31T14:27:30;2.28;;;1.30;;
51495;SDS011;37572;52.094;4.870;2023-07-31T14:29:55;2.90;;;1.50;;
51495;SDS011;37572;52.094;4.870;2023-07-31T14:32:23;2.55;;;1.27;;
51495;SDS011;37572;52.094;4.870;2023-07-31T14:34:50;2.80;;;1.83;;
51495;SDS011;37572;52.094;4.870;2023-07-31T14:37:16;2.97;;;1.48;;
51495;SDS011;37572;52.094;4.870;2023-07-31T14:39:41;3.23;;;1.40;;
51495;SDS011;37572;52.094;4.870;2023-07-31T14:42:06;2.50;;;1.50;;
51495;SDS011;37572;52.094;4.870;2023-07-31T14:44:32;3.67;;;1.27;;
51495;SDS011;37572;52.094;4.870;2023-07-31T14:46:57;2.67;;;1.20;;
51495;SDS011;37572;52.094;4.870;2023-07-31T14:49:23;2.58;;;1.13;;
51495;SDS011;37572;52.094;4.870;2023-07-31T14:51:48;1.92;;;0.95;;
51495;SDS011;37572;52.094;4.870;2023-07-31T14:54:14;3.42;;;1.70;;
51495;SDS011;37572;52.094;4.870;2023-07-31T14:56:39;2.80;;;1.50;;
51495;SDS011;37572;52.094;4.870;2023-07-31T14:59:04;3.33;;;1.67;;
51495;SDS011;37572;52.094;4.870;2023-07-31T15:01:29;3.23;;;1.80;;
51495;SDS011;37572;52.094;4.870;2023-07-31T15:03:55;2.65;;;1.40;;
51495;SDS011;37572;52.094;4.870;2023-07-31T15:06:20;4.13;;;2.00;;
51495;SDS011;37572;52.094;4.870;2023-07-31T15:08:45;3.90;;;1.80;;
51495;SDS011;37572;52.094;4.870;2023-07-31T15:11:11;3.37;;;1.90;;
51495;SDS011;37572;52.094;4.870;2023-07-31T15:13:36;4.28;;;1.80;;
51495;SDS011;37572;52.094;4.870;2023-07-31T15:16:01;3.03;;;1.48;;
51495;SDS011;37572;52.094;4.870;2023-07-31T15:18:27;4.47;;;1.90;;
51495;SDS011;37572;52.094;4.870;2023-07-31T15:20:53;3.78;;;2.05;;